Time;durP1;ratioP1;P1;durP2;ratioP2;P2;SDS_P1;SDS_P2;PMS_P1;PMS_P2;Temp;Humidity;BMP_temperature;BMP_pressure;BME280_temperature;BME280_humidity;BME280_pressure;Samples;Min_cycle;Max_cycle;Signal;HPM_P1;HPM_P2
2023/07/18 00:01:58;;;;;;;2.47;0.80;;;24.10;1.00;;;;;;4861640;29;20497;-41
2023/07/18 00:04:28;;;;;;;4.25;1.05;;;24.00;1.00;;;;;;4861405;29;20038;-41
2023/07/18 00:06:55;;;;;;;2.47;0.90;;;24.10;1.00;;;;;;4861541;29;20045;-41
2023/07/18 00:09:22;;;;;;;3.25;1.02;;;24.00;1.00;;;;;;4861462;29;20401;-40
2023/07/18 00:11:49;;;;;;;4.00;0.77;;;24.00;1.00;;;;;;4861538;29;20665;-41
2023/07/18 00:14:16;;;;;;;7.32;1.15;;;24.00;1.00;;;;;;4860764;29;20049;-41
2023/07/18 00:16:46;;;;;;;5.45;1.65;;;24.00;1.00;;;;;;4880016;29;20116;-41
2023/07/18 00:19:13;;;;;;;3.42;1.27;;;24.00;1.00;;;;;;4879845;29;20104;-41
2023/07/18 00:21:40;;;;;;;4.88;0.88;;;24.00;1.00;;;;;;4879800;29;20032;-41
2023/07/18 00:24:07;;;;;;;4.32;0.82;;;24.00;1.00;;;;;;4879493;29;20047;-41
2023/07/18 00:26:34;;;;;;;1.02;0.55;;;24.00;1.00;;;;;;4879819;29;20051;-41
2023/07/18 00:29:01;;;;;;;4.53;1.98;;;24.00;1.00;;;;;;4879814;29;20041;-42
2023/07/18 00:31:28;;;;;;;5.32;0.90;;;24.00;1.00;;;;;;4863097;29;20041;-41
2023/07/18 00:33:55;;;;;;;3.08;0.77;;;24.00;1.00;;;;;;4862703;29;20174;-42
2023/07/18 00:36:21;;;;;;;3.67;0.85;;;24.00;1.00;;;;;;4862885;29;20044;-42
2023/07/18 00:38:49;;;;;;;3.22;1.30;;;24.00;1.00;;;;;;4879637;29;20041;-43
2023/07/18 00:41:16;;;;;;;5.80;0.90;;;24.00;1.00;;;;;;4862690;29;20410;-42
2023/07/18 00:43:43;;;;;;;2.10;0.70;;;24.00;1.00;;;;;;4878017;29;20704;-42
2023/07/18 00:46:12;;;;;;;6.43;0.95;;;24.00;1.00;;;;;;4862660;29;20057;-40
2023/07/18 00:48:39;;;;;;;3.83;0.93;;;24.00;1.00;;;;;;4863783;29;20048;-41
2023/07/18 00:51:09;;;;;;;5.80;1.23;;;24.00;1.00;;;;;;4878823;29;20485;-40
2023/07/18 00:53:39;;;;;;;4.00;1.40;;;24.00;1.00;;;;;;4877874;29;20045;-42
2023/07/18 00:56:06;;;;;;;4.07;1.25;;;24.00;1.00;;;;;;4862603;29;20142;-40
2023/07/18 00:58:32;;;;;;;2.88;1.30;;;24.00;1.00;;;;;;4879140;29;20089;-40
2023/07/18 01:01:00;;;;;;;4.18;0.77;;;24.00;1.00;;;;;;4879224;29;20041;-41
2023/07/18 01:03:29;;;;;;;5.05;0.95;;;24.00;1.00;;;;;;4878762;29;20047;-40
2023/07/18 01:05:56;;;;;;;3.30;0.55;;;24.00;1.00;;;;;;4862388;29;20053;-40
2023/07/18 01:08:24;;;;;;;2.30;0.85;;;24.00;1.00;;;;;;4879062;29;20037;-41
2023/07/18 01:10:51;;;;;;;3.03;0.88;;;24.00;1.00;;;;;;4877744;29;20061;-40
2023/07/18 01:13:18;;;;;;;3.15;0.88;;;24.00;1.00;;;;;;4861841;29;20044;-40
2023/07/18 01:15:46;;;;;;;2.78;0.75;;;24.00;1.00;;;;;;4877581;29;20251;-40
2023/07/18 01:18:13;;;;;;;4.05;1.33;;;24.00;1.00;;;;;;4878930;29;20047;-43
2023/07/18 01:20:44;;;;;;;3.45;0.90;;;24.00;1.00;;;;;;4877592;29;20041;-40
2023/07/18 01:23:12;;;;;;;1.67;0.80;;;24.00;1.00;;;;;;4878473;29;20071;-40
2023/07/18 01:25:42;;;;;;;4.15;0.70;;;24.00;1.00;;;;;;4874245;29;20506;-40
2023/07/18 01:28:10;;;;;;;4.50;1.17;;;24.00;1.00;;;;;;4858240;29;20052;-40
2023/07/18 01:30:37;;;;;;;1.45;0.52;;;24.00;1.00;;;;;;4877507;29;20045;-39
2023/07/18 01:33:04;;;;;;;4.90;0.77;;;24.00;1.00;;;;;;4861446;29;20493;-42
2023/07/18 01:35:32;;;;;;;2.55;0.70;;;24.00;1.00;;;;;;4878532;29;20048;-40
2023/07/18 01:37:58;;;;;;;3.63;1.30;;;23.90;1.00;;;;;;4877321;29;20056;-39
2023/07/18 01:40:26;;;;;;;1.73;0.88;;;24.00;1.00;;;;;;4878481;29;20056;-40
2023/07/18 01:42:55;;;;;;;2.67;0.70;;;23.90;1.00;;;;;;4861488;29;20040;-40
2023/07/18 01:45:24;;;;;;;3.30;0.95;;;23.90;1.00;;;;;;4861699;29;20457;-40
2023/07/18 01:47:52;;;;;;;3.35;0.50;;;23.90;1.00;;;;;;4877137;29;20555;-40
2023/07/18 01:50:19;;;;;;;6.30;0.70;;;23.90;1.00;;;;;;4861659;29;20052;-41
2023/07/18 01:52:47;;;;;;;3.30;0.93;;;23.90;1.00;;;;;;4878132;29;20064;-40
2023/07/18 01:55:15;;;;;;;4.50;0.88;;;23.90;1.00;;;;;;4878143;29;20409;-40
2023/07/18 01:57:48;;;;;;;2.35;0.47;;;23.90;1.00;;;;;;4878377;29;20055;-40
2023/07/18 02:00:19;;;;;;;;;;;23.90;1.00;;;;;;4861938;29;20462;-40
2023/07/18 02:02:52;;;;;;;2.38;0.70;;;23.90;1.00;;;;;;4863800;29;19928;-40
2023/07/18 02:05:25;;;;;;;2.95;0.95;;;23.90;1.00;;;;;;4861534;29;20052;-40
2023/07/18 02:07:53;;;;;;;2.80;0.57;;;23.90;1.00;;;;;;4878414;29;20080;-40
2023/07/18 02:10:21;;;;;;;4.45;1.17;;;23.90;1.00;;;;;;4861333;29;20501;-41
2023/07/18 02:12:50;;;;;;;3.95;1.35;;;23.80;1.00;;;;;;4861097;29;20080;-40
2023/07/18 02:15:17;;;;;;;4.07;1.05;;;23.90;1.00;;;;;;4861409;29;20045;-40
2023/07/18 02:17:44;;;;;;;4.65;0.90;;;23.80;1.00;;;;;;4878023;29;20060;-40
2023/07/18 02:20:13;;;;;;;4.90;0.82;;;23.80;1.00;;;;;;4876744;29;20065;-40
2023/07/18 02:22:42;;;;;;;7.13;0.90;;;23.90;1.00;;;;;;4877540;29;20041;-40
2023/07/18 02:25:10;;;;;;;3.47;0.63;;;23.80;1.00;;;;;;4876770;29;20097;-40
2023/07/18 02:27:39;;;;;;;1.17;0.38;;;23.80;1.00;;;;;;4865713;29;20136;-40
2023/07/18 02:30:09;;;;;;;4.15;0.93;;;23.80;1.00;;;;;;4843021;29;20046;-40
2023/07/18 02:32:36;;;;;;;4.50;0.95;;;23.80;1.00;;;;;;4858951;29;20073;-40
2023/07/18 02:35:10;;;;;;;3.20;0.95;;;23.80;1.00;;;;;;4859574;29;20034;-40
2023/07/18 02:37:37;;;;;;;4.82;1.77;;;23.80;1.00;;;;;;4864824;29;20113;-40
2023/07/18 02:40:09;;;;;;;4.10;2.22;;;23.80;1.00;;;;;;4870714;29;20442;-40
2023/07/18 02:42:37;;;;;;;4.03;0.73;;;23.80;1.00;;;;;;4846553;29;20469;-40
2023/07/18 02:45:06;;;;;;;3.28;0.73;;;23.80;1.00;;;;;;4873203;29;20117;-40
2023/07/18 02:47:33;;;;;;;3.78;0.60;;;23.80;1.00;;;;;;4845017;29;20057;-40
2023/07/18 02:50:01;;;;;;;1.90;0.65;;;23.80;1.00;;;;;;4872968;29;20338;-41
2023/07/18 02:52:27;;;;;;;4.35;1.10;;;23.80;1.00;;;;;;4861164;29;20058;-40
2023/07/18 02:54:54;;;;;;;4.85;1.73;;;23.80;1.00;;;;;;4859664;29;20124;-39
2023/07/18 02:57:21;;;;;;;1.17;0.90;;;23.80;1.00;;;;;;4868282;29;20157;-39
2023/07/18 02:59:48;;;;;;;3.15;1.15;;;23.80;1.00;;;;;;4855766;29;20088;-39
2023/07/18 03:02:15;;;;;;;1.08;0.65;;;23.80;1.00;;;;;;4869076;29;20488;-41
2023/07/18 03:04:46;;;;;;;3.85;1.05;;;23.80;1.00;;;;;;4863068;29;20505;-39
2023/07/18 03:07:13;;;;;;;1.80;0.70;;;23.80;1.00;;;;;;4871282;29;20124;-40
2023/07/18 03:09:41;;;;;;;2.53;1.20;;;23.80;1.00;;;;;;4861303;29;20403;-39
2023/07/18 03:12:10;;;;;;;4.65;0.88;;;23.80;1.00;;;;;;4847938;29;20053;-40
2023/07/18 03:14:37;;;;;;;2.80;0.80;;;23.80;1.00;;;;;;4861531;29;20046;-40
2023/07/18 03:17:05;;;;;;;2.05;0.85;;;23.80;1.00;;;;;;4865279;29;20117;-39
2023/07/18 03:19:32;;;;;;;4.88;1.30;;;23.70;1.00;;;;;;4870796;29;20068;-40
2023/07/18 03:21:59;;;;;;;4.05;1.25;;;23.80;1.00;;;;;;4875012;29;20120;-42
2023/07/18 03:24:26;;;;;;;2.38;0.47;;;23.70;1.00;;;;;;4861640;29;20088;-40
2023/07/18 03:26:54;;;;;;;3.67;0.90;;;23.70;1.00;;;;;;4845979;29;20057;-40
2023/07/18 03:29:22;;;;;;;2.80;0.82;;;23.80;1.00;;;;;;4869709;29;20063;-43
2023/07/18 03:31:50;;;;;;;3.50;0.80;;;23.70;1.00;;;;;;4845655;29;20045;-40
2023/07/18 03:34:17;;;;;;;2.20;0.60;;;23.80;1.00;;;;;;4862029;29;20056;-40
2023/07/18 03:36:45;;;;;;;4.40;0.90;;;23.70;1.00;;;;;;4861604;29;20142;-40
2023/07/18 03:39:13;;;;;;;5.13;0.98;;;23.70;1.00;;;;;;4862249;29;20038;-39
2023/07/18 03:41:40;;;;;;;2.38;0.60;;;23.70;1.00;;;;;;4863587;29;20120;-42
2023/07/18 03:44:08;;;;;;;2.90;1.17;;;23.70;1.00;;;;;;4861174;29;20049;-40
2023/07/18 03:46:35;;;;;;;1.60;0.50;;;23.70;1.00;;;;;;4861312;29;20058;-42
2023/07/18 03:49:02;;;;;;;3.55;0.68;;;23.70;1.00;;;;;;4873061;29;20048;-41
2023/07/18 03:51:29;;;;;;;4.05;2.05;;;23.70;1.00;;;;;;4864680;29;20057;-40
2023/07/18 03:54:03;;;;;;;3.35;1.05;;;23.70;1.00;;;;;;4866119;29;20041;-41
2023/07/18 03:56:30;;;;;;;7.43;2.45;;;23.70;1.00;;;;;;4868865;29;20089;-41
2023/07/18 03:58:58;;;;;;;3.65;0.80;;;23.70;1.00;;;;;;4867850;29;20136;-40
2023/07/18 04:01:25;;;;;;;3.20;1.25;;;23.60;1.00;;;;;;4861950;29;20056;-42
2023/07/18 04:03:52;;;;;;;2.97;1.52;;;23.70;1.00;;;;;;4860905;29;20086;-43
2023/07/18 04:06:19;;;;;;;3.30;1.10;;;23.70;1.00;;;;;;4864780;29;20056;-42
2023/07/18 04:08:46;;;;;;;5.68;1.52;;;23.60;1.00;;;;;;4863301;29;20497;-41
2023/07/18 04:11:13;;;;;;;8.90;1.90;;;23.60;1.00;;;;;;4861045;29;20050;-41
2023/07/18 04:13:40;;;;;;;5.40;2.20;;;23.60;1.00;;;;;;4859732;29;20052;-41
2023/07/18 04:16:07;;;;;;;11.10;2.58;;;23.60;1.00;;;;;;4874289;29;20088;-40
2023/07/18 04:18:34;;;;;;;5.05;1.83;;;23.60;1.00;;;;;;4850588;29;20494;-41
2023/07/18 04:21:01;;;;;;;15.73;2.70;;;23.60;1.00;;;;;;4851710;29;20041;-40
2023/07/18 04:23:28;;;;;;;12.77;3.13;;;23.60;1.00;;;;;;4856365;29;20045;-40
2023/07/18 04:26:03;;;;;;;12.57;3.67;;;23.60;1.00;;;;;;4860604;29;20073;-40
2023/07/18 04:28:36;;;;;;;6.28;1.88;;;23.60;1.00;;;;;;4861560;29;20049;-41
2023/07/18 04:31:03;;;;;;;7.35;2.15;;;23.60;1.00;;;;;;4873266;29;20064;-40
2023/07/18 04:33:38;;;;;;;11.88;2.78;;;23.50;1.00;;;;;;4879656;29;20528;-40
2023/07/18 04:36:06;;;;;;;16.08;2.50;;;23.50;1.00;;;;;;4880053;29;20071;-40
2023/07/18 04:38:37;;;;;;;7.68;1.95;;;23.50;1.00;;;;;;4879814;29;20128;-41
2023/07/18 04:41:04;;;;;;;13.30;1.90;;;23.50;1.00;;;;;;4880141;29;20466;-40
2023/07/18 04:43:31;;;;;;;6.32;2.30;;;23.50;1.00;;;;;;4878210;29;20546;-43
2023/07/18 04:45:58;;;;;;;6.50;1.70;;;23.50;1.00;;;;;;4879838;29;20049;-42
2023/07/18 04:48:25;;;;;;;11.00;1.80;;;23.50;1.00;;;;;;4870266;29;20045;-41
2023/07/18 04:51:00;;;;;;;4.60;1.27;;;23.50;1.00;;;;;;4859541;29;20053;-40
2023/07/18 04:53:28;;;;;;;8.25;1.73;;;23.50;1.00;;;;;;4868243;29;20056;-40
2023/07/18 04:55:55;;;;;;;6.47;1.48;;;23.50;1.00;;;;;;4844026;29;20417;-40
2023/07/18 04:58:24;;;;;;;8.18;1.15;;;23.50;1.00;;;;;;4874840;29;20045;-41
2023/07/18 05:00:54;;;;;;;10.38;2.22;;;23.50;1.00;;;;;;4879548;29;20069;-40
2023/07/18 05:03:21;;;;;;;8.32;2.03;;;23.50;1.00;;;;;;4879259;29;20048;-41
2023/07/18 05:05:49;;;;;;;7.15;1.50;;;23.50;1.00;;;;;;4862527;29;20049;-40
2023/07/18 05:08:17;;;;;;;7.03;1.33;;;23.50;1.00;;;;;;4879301;29;20397;-41
2023/07/18 05:10:44;;;;;;;5.45;1.30;;;23.50;1.00;;;;;;4879206;29;20124;-44
2023/07/18 05:13:10;;;;;;;7.13;1.58;;;23.50;1.00;;;;;;4878920;29;20060;-41
2023/07/18 05:15:37;;;;;;;7.80;2.10;;;23.50;1.00;;;;;;4879294;29;20057;-41
2023/07/18 05:18:04;;;;;;;11.57;1.63;;;23.50;1.00;;;;;;4879144;29;20044;-40
2023/07/18 05:20:31;;;;;;;9.93;1.52;;;23.50;1.00;;;;;;4879152;29;20064;-40
2023/07/18 05:22:59;;;;;;;7.10;1.75;;;23.50;1.00;;;;;;4878510;29;20501;-40
2023/07/18 05:25:27;;;;;;;5.15;1.05;;;23.50;1.00;;;;;;4879241;29;20037;-40
2023/07/18 05:27:56;;;;;;;9.52;1.65;;;23.50;1.00;;;;;;4879043;29;20390;-40
2023/07/18 05:30:22;;;;;;;6.85;1.55;;;23.40;1.00;;;;;;4879054;29;20127;-40
2023/07/18 05:32:52;;;;;;;10.43;2.25;;;23.50;1.00;;;;;;4878631;29;20064;-41
2023/07/18 05:35:19;;;;;;;4.65;1.23;;;23.50;1.00;;;;;;4878916;29;20475;-40
2023/07/18 05:37:46;;;;;;;6.95;2.03;;;23.50;1.00;;;;;;4878481;29;20037;-40
2023/07/18 05:40:13;;;;;;;7.55;1.75;;;23.50;1.00;;;;;;4878922;29;20128;-41
2023/07/18 05:42:41;;;;;;;8.48;1.45;;;23.50;1.00;;;;;;4878394;29;20509;-42
2023/07/18 05:45:09;;;;;;;4.60;1.13;;;23.40;1.00;;;;;;4878900;29;20053;-40
2023/07/18 05:47:37;;;;;;;3.85;1.27;;;23.50;1.00;;;;;;4878570;29;20113;-41
2023/07/18 05:50:06;;;;;;;3.45;1.35;;;23.40;1.00;;;;;;4878841;29;20049;-40
2023/07/18 05:52:34;;;;;;;4.85;1.45;;;23.50;1.00;;;;;;4878351;29;20131;-40
2023/07/18 05:55:04;;;;;;;7.40;1.70;;;23.50;1.00;;;;;;4878643;29;20051;-40
2023/07/18 05:57:31;;;;;;;3.95;1.35;;;23.50;1.00;;;;;;4861834;29;20422;-40
2023/07/18 05:59:58;;;;;;;4.88;1.38;;;23.50;1.00;;;;;;4878492;29;20152;-40
2023/07/18 06:02:25;;;;;;;5.22;1.80;;;23.50;1.00;;;;;;4878189;29;20120;-40
2023/07/18 06:04:52;;;;;;;8.13;1.40;;;23.50;1.00;;;;;;4878476;29;20045;-40
2023/07/18 06:07:19;;;;;;;5.47;1.20;;;23.50;1.00;;;;;;4878436;29;20075;-41
2023/07/18 06:09:49;;;;;;;8.07;1.38;;;23.50;1.00;;;;;;4878425;29;20045;-42
2023/07/18 06:12:16;;;;;;;5.32;1.35;;;23.50;1.00;;;;;;4878253;29;20080;-40
2023/07/18 06:14:42;;;;;;;6.57;1.30;;;23.50;1.00;;;;;;4878460;29;20051;-40
2023/07/18 06:17:09;;;;;;;7.28;1.65;;;23.50;1.00;;;;;;4878181;29;20045;-40
2023/07/18 06:19:36;;;;;;;8.40;1.23;;;23.50;1.00;;;;;;4878413;29;20045;-42
2023/07/18 06:22:05;;;;;;;3.70;1.10;;;23.50;1.00;;;;;;4878446;29;20045;-41
2023/07/18 06:24:32;;;;;;;6.05;1.50;;;23.50;1.00;;;;;;4878305;29;20033;-40
2023/07/18 06:26:59;;;;;;;7.82;1.40;;;23.50;1.00;;;;;;4878306;29;20132;-40
2023/07/18 06:29:26;;;;;;;8.15;1.45;;;23.50;1.00;;;;;;4878387;29;20506;-42
2023/07/18 06:31:56;;;;;;;6.05;2.03;;;23.50;1.00;;;;;;4878045;29;20061;-41
2023/07/18 06:34:23;;;;;;;6.40;1.00;;;23.50;1.00;;;;;;4877930;29;20053;-40
2023/07/18 06:36:50;;;;;;;5.63;1.38;;;23.60;1.00;;;;;;4878117;29;20045;-40
2023/07/18 06:39:17;;;;;;;8.18;1.67;;;23.60;1.00;;;;;;4878260;29;20052;-41
2023/07/18 06:41:44;;;;;;;4.85;1.10;;;23.60;1.00;;;;;;4878153;29;20101;-40
2023/07/18 06:44:14;;;;;;;4.70;1.13;;;23.60;1.00;;;;;;4861004;29;20045;-40
2023/07/18 06:46:42;;;;;;;8.80;1.55;;;23.60;1.00;;;;;;4861221;29;20476;-40
2023/07/18 06:49:11;;;;;;;9.18;1.95;;;23.60;1.00;;;;;;4878618;29;20100;-40
2023/07/18 06:51:37;;;;;;;5.60;1.35;;;23.60;1.00;;;;;;4866771;29;20065;-40
2023/07/18 06:54:04;;;;;;;2.85;1.05;;;23.60;1.00;;;;;;4880955;29;20056;-40
2023/07/18 06:56:31;;;;;;;2.22;0.88;;;23.60;1.00;;;;;;4881243;29;20128;-41
2023/07/18 06:58:58;;;;;;;5.03;1.23;;;23.60;1.00;;;;;;4881332;29;20506;-40
2023/07/18 07:01:25;;;;;;;6.03;1.65;;;23.60;1.00;;;;;;4881436;29;20045;-40
2023/07/18 07:03:52;;;;;;;5.05;1.40;;;23.60;1.00;;;;;;4880904;29;20473;-40
2023/07/18 07:06:20;;;;;;;7.28;1.73;;;23.60;1.00;;;;;;4881188;29;20049;-40
2023/07/18 07:08:47;;;;;;;3.95;1.08;;;23.60;1.00;;;;;;4881372;29;20398;-40
2023/07/18 07:11:14;;;;;;;6.65;1.27;;;23.60;1.00;;;;;;4881195;29;20052;-44
2023/07/18 07:13:40;;;;;;;6.43;1.20;;;23.60;1.00;;;;;;4880695;29;20045;-40
2023/07/18 07:16:07;;;;;;;7.60;1.53;;;23.60;1.00;;;;;;4880863;29;20056;-40
2023/07/18 07:18:34;;;;;;;5.13;1.77;;;23.60;1.00;;;;;;4880888;29;20047;-40
2023/07/18 07:21:02;;;;;;;4.03;1.10;;;23.60;1.00;;;;;;4880864;29;20037;-40
2023/07/18 07:23:28;;;;;;;9.38;2.03;;;23.60;1.00;;;;;;4880457;29;20037;-40
2023/07/18 07:25:56;;;;;;;3.45;1.15;;;23.60;1.00;;;;;;4880691;29;20412;-41
2023/07/18 07:28:23;;;;;;;5.63;1.00;;;23.60;1.00;;;;;;4880884;29;20532;-42
2023/07/18 07:30:51;;;;;;;7.85;1.42;;;23.60;1.00;;;;;;4880697;29;20104;-40
2023/07/18 07:33:19;;;;;;;6.22;1.30;;;23.60;1.00;;;;;;4880384;29;20080;-40
2023/07/18 07:35:46;;;;;;;5.60;1.20;;;23.70;1.00;;;;;;4880612;29;20049;-40
2023/07/18 07:38:14;;;;;;;6.57;1.83;;;23.70;1.00;;;;;;4872962;29;20464;-40
2023/07/18 07:40:41;;;;;;;5.47;1.25;;;23.70;1.00;;;;;;4880485;29;20072;-40
2023/07/18 07:43:08;;;;;;;5.25;1.27;;;23.70;1.00;;;;;;4880625;29;20049;-40
2023/07/18 07:45:35;;;;;;;5.05;1.40;;;23.70;1.00;;;;;;4880649;29;20045;-41
2023/07/18 07:48:03;;;;;;;5.03;1.02;;;23.70;1.00;;;;;;4846502;29;20049;-40
2023/07/18 07:50:33;;;;;;;7.70;1.52;;;23.70;1.00;;;;;;4875223;29;20044;-40
2023/07/18 07:53:01;;;;;;;6.63;1.83;;;23.70;1.00;;;;;;4880234;29;20045;-41
2023/07/18 07:55:28;;;;;;;3.90;0.88;;;23.70;1.00;;;;;;4880928;29;20064;-41
2023/07/18 07:57:55;;;;;;;3.85;1.42;;;23.70;1.00;;;;;;4880385;29;20045;-40
2023/07/18 08:00:22;;;;;;;5.95;1.10;;;23.70;1.00;;;;;;4879849;29;20093;-40
2023/07/18 08:02:49;;;;;;;4.60;1.15;;;23.70;1.00;;;;;;4879679;29;20041;-40
2023/07/18 08:05:16;;;;;;;3.97;1.33;;;23.70;1.00;;;;;;4880577;29;20037;-41
2023/07/18 08:07:43;;;;;;;4.05;1.23;;;23.70;1.00;;;;;;4880438;29;20044;-40
2023/07/18 08:10:10;;;;;;;4.45;1.75;;;23.70;1.00;;;;;;4880093;29;20084;-40
2023/07/18 08:12:38;;;;;;;7.35;2.08;;;23.70;1.00;;;;;;4880045;29;20090;-40
2023/07/18 08:15:05;;;;;;;4.57;1.85;;;23.70;1.00;;;;;;4880294;29;20053;-40
2023/07/18 08:17:32;;;;;;;6.07;1.52;;;23.70;1.00;;;;;;4880081;29;20079;-40
2023/07/18 08:19:59;;;;;;;3.47;1.08;;;23.80;1.00;;;;;;4880078;29;20418;-42
2023/07/18 08:22:26;;;;;;;3.03;0.85;;;23.80;1.00;;;;;;4879783;29;20048;-40
2023/07/18 08:24:53;;;;;;;7.50;1.75;;;23.80;1.00;;;;;;4880024;29;20045;-41
2023/07/18 08:27:20;;;;;;;3.47;0.93;;;23.80;1.00;;;;;;4880075;29;20049;-40
2023/07/18 08:29:46;;;;;;;4.82;1.38;;;23.80;1.00;;;;;;4880007;29;20055;-40
2023/07/18 08:32:13;;;;;;;3.88;1.05;;;23.80;1.00;;;;;;4879715;29;20489;-40
2023/07/18 08:34:40;;;;;;;5.93;0.93;;;23.80;1.00;;;;;;4879823;29;20123;-40
2023/07/18 08:37:09;;;;;;;6.88;1.48;;;23.80;1.00;;;;;;4879575;29;20069;-40
2023/07/18 08:39:37;;;;;;;3.67;1.13;;;23.80;1.00;;;;;;4879948;29;20049;-40
2023/07/18 08:42:09;;;;;;;3.08;1.08;;;23.80;1.00;;;;;;4879058;29;20052;-40
2023/07/18 08:44:37;;;;;;;5.53;1.37;;;23.80;1.00;;;;;;4879576;29;20405;-41
2023/07/18 08:47:05;;;;;;;2.20;0.68;;;23.80;1.00;;;;;;4879193;29;20040;-40
2023/07/18 08:49:35;;;;;;;4.95;1.30;;;23.80;1.00;;;;;;4879172;29;20074;-40
2023/07/18 08:52:04;;;;;;;2.10;0.93;;;23.80;1.00;;;;;;4879191;29;20113;-40
2023/07/18 08:54:34;;;;;;;2.92;1.10;;;23.80;1.00;;;;;;4879007;29;20076;-40
2023/07/18 08:57:02;;;;;;;3.20;1.45;;;23.80;1.00;;;;;;4879204;29;20109;-42
2023/07/18 08:59:30;;;;;;;2.05;0.88;;;23.80;1.00;;;;;;4879016;29;20055;-40
2023/07/18 09:01:56;;;;;;;3.50;1.30;;;23.80;1.00;;;;;;4878818;29;20061;-41
2023/07/18 09:04:24;;;;;;;2.47;0.80;;;23.80;1.00;;;;;;4877942;29;20051;-42
2023/07/18 09:06:58;;;;;;;2.05;0.80;;;23.80;1.00;;;;;;4878924;29;20127;-42
2023/07/18 09:09:25;;;;;;;1.80;0.98;;;23.80;1.00;;;;;;4878995;29;20052;-41
2023/07/18 09:12:00;;;;;;;4.72;1.67;;;23.80;1.00;;;;;;4878523;29;20064;-41
2023/07/18 09:14:32;;;;;;;6.95;1.55;;;23.80;1.00;;;;;;4865918;29;20120;-41
2023/07/18 09:17:04;;;;;;;4.47;1.30;;;23.80;1.00;;;;;;4871069;29;20053;-41
2023/07/18 09:19:39;;;;;;;6.50;1.38;;;23.80;1.00;;;;;;4878813;29;20085;-40
2023/07/18 09:22:11;;;;;;;3.25;1.10;;;23.80;1.00;;;;;;4878289;29;20045;-42
2023/07/18 09:24:39;;;;;;;2.83;0.47;;;23.80;1.00;;;;;;4878812;29;20474;-40
2023/07/18 09:27:15;;;;;;;4.75;1.08;;;23.80;1.00;;;;;;4878597;29;20469;-43
2023/07/18 09:29:46;;;;;;;3.63;1.52;;;23.80;1.00;;;;;;4878550;29;20446;-43
2023/07/18 09:32:21;;;;;;;4.43;1.08;;;23.80;1.00;;;;;;4878125;29;20052;-40
2023/07/18 09:34:56;;;;;;;2.55;0.75;;;23.80;1.00;;;;;;4878656;29;20045;-41
2023/07/18 09:37:23;;;;;;;3.95;1.05;;;23.80;1.00;;;;;;4878386;29;20543;-41
2023/07/18 09:39:51;;;;;;;2.38;1.23;;;23.80;1.00;;;;;;4863977;29;20394;-42
2023/07/18 09:42:18;;;;;;;3.47;0.93;;;23.80;1.00;;;;;;4859551;29;20849;-41
2023/07/18 09:44:48;;;;;;;5.65;1.45;;;23.80;1.00;;;;;;4859622;29;20438;-41
2023/07/18 09:47:18;;;;;;;2.58;0.80;;;23.80;1.00;;;;;;4877274;29;20425;-41
2023/07/18 09:49:45;;;;;;;2.50;0.80;;;23.80;1.00;;;;;;4878164;29;20575;-42
2023/07/18 09:52:12;;;;;;;3.03;0.93;;;23.80;1.00;;;;;;4877913;29;20128;-42
2023/07/18 09:54:41;;;;;;;3.10;1.25;;;23.80;1.00;;;;;;4878328;29;20037;-40
2023/07/18 09:57:09;;;;;;;3.35;0.93;;;23.80;1.00;;;;;;4878018;29;20059;-41
2023/07/18 09:59:38;;;;;;;2.85;0.93;;;23.80;1.00;;;;;;4878284;29;20121;-40
2023/07/18 10:02:06;;;;;;;1.92;0.80;;;23.80;1.00;;;;;;4877646;29;20044;-42
2023/07/18 10:04:33;;;;;;;2.85;1.13;;;23.80;1.00;;;;;;4877841;29;20067;-42
2023/07/18 10:07:02;;;;;;;2.25;1.20;;;23.80;1.00;;;;;;4877792;29;20041;-40
2023/07/18 10:09:31;;;;;;;2.13;1.02;;;23.80;1.00;;;;;;4877106;29;20032;-40
2023/07/18 10:11:58;;;;;;;4.53;1.00;;;23.80;1.00;;;;;;4877426;29;20584;-40
2023/07/18 10:14:47;;;;;;;5.05;0.93;;;23.90;1.00;;;;;;4877519;29;20033;-44
2023/07/18 10:17:43;;;;;;;3.88;1.30;;;23.80;1.00;;;;;;4877578;29;20127;-41
2023/07/18 10:20:12;;;;;;;3.40;0.90;;;23.80;1.00;;;;;;4860173;29;20083;-41
2023/07/18 10:22:57;;;;;;;3.80;1.00;;;23.90;1.00;;;;;;4877735;29;20498;-41
2023/07/18 10:25:29;;;;;;;4.85;1.90;;;23.90;1.00;;;;;;4859038;29;20412;-43
2023/07/18 10:27:57;;;;;;;4.20;1.88;;;23.90;1.00;;;;;;4874185;29;20420;-42
2023/07/18 10:30:36;;;;;;;4.93;0.60;;;23.90;1.00;;;;;;4878139;29;20048;-42
2023/07/18 10:33:03;;;;;;;3.40;0.90;;;23.90;1.00;;;;;;4877366;29;20124;-40
2023/07/18 10:35:30;;;;;;;1.65;0.70;;;23.90;1.00;;;;;;4877598;29;20049;-40
2023/07/18 10:38:06;;;;;;;1.50;0.75;;;23.90;1.00;;;;;;4877381;29;20037;-40
2023/07/18 10:40:43;;;;;;;4.90;1.30;;;23.90;1.00;;;;;;4877636;29;20036;-41
2023/07/18 10:43:11;;;;;;;2.60;1.20;;;23.90;1.00;;;;;;4877151;29;20074;-40
2023/07/18 10:45:40;;;;;;;3.42;1.13;;;23.90;1.00;;;;;;4877522;29;20048;-41
2023/07/18 10:48:10;;;;;;;2.45;0.88;;;23.90;1.00;;;;;;4877419;29;20051;-41
2023/07/18 10:50:38;;;;;;;3.47;0.63;;;23.90;1.00;;;;;;4877617;29;20048;-41
2023/07/18 10:53:04;;;;;;;2.25;0.80;;;23.90;1.00;;;;;;4876954;29;20049;-43
2023/07/18 10:55:31;;;;;;;1.92;0.63;;;23.90;1.00;;;;;;4877343;29;20069;-43
2023/07/18 10:57:58;;;;;;;4.35;0.80;;;23.90;1.00;;;;;;4878166;29;20508;-40
2023/07/18 11:00:25;;;;;;;5.75;1.23;;;24.00;1.00;;;;;;4877531;29;20052;-40
2023/07/18 11:02:52;;;;;;;2.13;0.70;;;23.90;1.00;;;;;;4877231;29;20037;-43
2023/07/18 11:05:21;;;;;;;3.88;1.00;;;23.90;1.00;;;;;;4877342;29;20049;-43
2023/07/18 11:07:48;;;;;;;1.58;0.70;;;24.00;1.00;;;;;;4877446;29;20045;-40
2023/07/18 11:10:15;;;;;;;2.50;0.45;;;23.90;1.00;;;;;;4877471;29;20072;-41
2023/07/18 11:12:43;;;;;;;3.75;1.30;;;24.00;1.00;;;;;;4877043;29;20067;-42
2023/07/18 11:15:11;;;;;;;4.72;1.02;;;24.00;1.00;;;;;;4877172;29;20052;-40
2023/07/18 11:17:38;;;;;;;1.58;0.82;;;24.00;1.00;;;;;;4877340;29;20061;-44
2023/07/18 11:20:07;;;;;;;3.00;0.70;;;24.00;1.00;;;;;;4877316;29;20037;-40
2023/07/18 11:22:34;;;;;;;1.48;0.82;;;24.00;1.00;;;;;;4876827;29;20037;-41
2023/07/18 11:25:01;;;;;;;2.85;0.57;;;24.00;1.00;;;;;;4877551;29;20392;-40
2023/07/18 11:27:31;;;;;;;1.95;0.50;;;24.00;1.00;;;;;;4876908;29;20136;-40
2023/07/18 11:30:03;;;;;;;4.22;1.00;;;24.00;1.00;;;;;;4877060;29;20048;-41
2023/07/18 11:32:35;;;;;;;2.70;1.08;;;24.00;1.00;;;;;;4876897;29;20116;-42
2023/07/18 11:35:02;;;;;;;5.37;1.30;;;24.00;1.00;;;;;;4877961;29;20041;-41
2023/07/18 11:37:29;;;;;;;2.42;0.43;;;24.00;1.00;;;;;;4862172;29;20552;-41
2023/07/18 11:40:02;;;;;;;2.00;0.60;;;24.00;1.00;;;;;;4876364;29;20041;-44
2023/07/18 11:42:46;;;;;;;1.23;0.47;;;24.00;1.00;;;;;;4880120;29;20075;-42
2023/07/18 11:45:16;;;;;;;2.55;0.80;;;24.00;1.00;;;;;;4880217;29;20049;-41
2023/07/18 11:47:48;;;;;;;2.78;0.90;;;24.00;1.00;;;;;;4880272;29;20051;-42
2023/07/18 11:50:17;;;;;;;2.97;0.98;;;24.00;1.00;;;;;;4880154;29;20076;-40
2023/07/18 11:52:51;;;;;;;2.78;1.25;;;24.00;1.00;;;;;;4879861;29;20073;-43
2023/07/18 11:55:20;;;;;;;3.08;0.85;;;24.00;1.00;;;;;;4880107;29;20041;-41
2023/07/18 11:57:48;;;;;;;1.63;0.57;;;24.00;1.00;;;;;;4880293;29;20052;-41
2023/07/18 12:00:16;;;;;;;2.40;0.55;;;24.00;1.00;;;;;;4880001;29;20093;-40
2023/07/18 12:02:44;;;;;;;1.20;0.40;;;24.00;1.00;;;;;;4879888;29;20060;-41
2023/07/18 12:05:15;;;;;;;3.40;0.70;;;24.00;1.00;;;;;;4863188;29;20084;-42
2023/07/18 12:07:44;;;;;;;3.42;0.77;;;24.00;1.00;;;;;;4879918;29;20127;-41
2023/07/18 12:10:12;;;;;;;2.60;0.82;;;24.00;1.00;;;;;;4879845;29;20057;-40
2023/07/18 12:12:39;;;;;;;2.00;0.50;;;24.00;1.00;;;;;;4879710;29;20489;-40
2023/07/18 12:15:07;;;;;;;1.33;0.50;;;24.00;1.00;;;;;;4880017;29;20493;-40
2023/07/18 12:17:34;;;;;;;3.28;0.60;;;24.00;1.00;;;;;;4879342;29;20069;-41
2023/07/18 12:20:02;;;;;;;1.58;0.60;;;24.00;1.00;;;;;;4879848;29;20048;-42
2023/07/18 12:22:29;;;;;;;1.73;0.60;;;24.00;1.00;;;;;;4879380;29;20461;-40
2023/07/18 12:24:56;;;;;;;1.73;0.63;;;24.00;1.00;;;;;;4879486;29;20064;-41
2023/07/18 12:27:22;;;;;;;2.15;0.73;;;24.00;1.00;;;;;;4879471;29;20053;-41
2023/07/18 12:29:49;;;;;;;2.15;0.63;;;24.00;1.00;;;;;;4879684;29;20052;-46
2023/07/18 12:32:16;;;;;;;1.80;0.80;;;24.00;1.00;;;;;;4878988;29;20049;-40
2023/07/18 12:34:43;;;;;;;3.05;1.13;;;24.00;1.00;;;;;;4879431;29;20120;-40
2023/07/18 12:37:10;;;;;;;2.95;0.80;;;24.00;1.00;;;;;;4879616;29;20528;-41
2023/07/18 12:39:36;;;;;;;2.72;0.77;;;24.00;1.00;;;;;;4879112;29;20501;-41
2023/07/18 12:42:04;;;;;;;3.38;0.65;;;24.00;1.00;;;;;;4874699;29;20049;-41
2023/07/18 12:44:39;;;;;;;1.77;0.73;;;24.00;1.00;;;;;;4879183;29;20071;-41
2023/07/18 12:47:06;;;;;;;1.30;0.63;;;24.00;1.00;;;;;;4878499;29;20063;-43
2023/07/18 12:49:35;;;;;;;1.25;0.60;;;24.00;1.00;;;;;;4879151;29;20045;-41
2023/07/18 12:52:06;;;;;;;3.25;1.75;;;24.00;1.00;;;;;;4879009;29;20044;-45
2023/07/18 12:54:33;;;;;;;2.00;0.88;;;24.00;1.00;;;;;;4878876;29;20464;-44
2023/07/18 12:57:00;;;;;;;2.92;0.73;;;24.00;1.00;;;;;;4862604;29;20058;-42
2023/07/18 12:59:27;;;;;;;2.15;0.77;;;24.00;1.00;;;;;;4879008;29;20077;-42
2023/07/18 13:01:55;;;;;;;1.33;0.50;;;24.00;1.00;;;;;;4879084;29;20052;-43
2023/07/18 13:04:23;;;;;;;1.83;0.50;;;24.00;1.00;;;;;;4878789;29;20127;-44